Time;durP1;ratioP1;P1;durP2;ratioP2;P2;SDS_P1;SDS_P2;PMS_P1;PMS_P2;Temp;Humidity;BMP_temperature;BMP_pressure;BME280_temperature;BME280_humidity;BME280_pressure;Samples;Min_cycle;Max_cycle;Signal;HPM_P1;HPM_P2
2023/05/01 00:01:10;;;;;;;12.30;10.20;;;;;;;7.08;100.00;97342.49;110179;1243;59725;-73
2023/05/01 00:03:42;;;;;;;15.70;11.30;;;;;;;7.08;100.00;97342.36;110124;1243;71270;-73
2023/05/01 00:06:12;;;;;;;15.80;12.00;;;;;;;7.06;100.00;97340.35;110144;1241;69184;-73
2023/05/01 00:08:43;;;;;;;14.00;10.60;;;;;;;7.04;100.00;97342.40;110098;1241;69028;-73
2023/05/01 00:11:14;;;;;;;14.40;11.60;;;;;;;7.02;100.00;97346.16;110167;1244;59756;-73
2023/05/01 00:13:45;;;;;;;16.00;12.80;;;;;;;6.97;100.00;97349.58;110141;1244;59646;-73
2023/05/01 00:16:20;;;;;;;14.40;11.90;;;;;;;6.91;100.00;97350.63;110142;1245;70777;-73
2023/05/01 00:18:51;;;;;;;;;;;;;;;6.85;100.00;97357.06;110161;1241;68546;-73
2023/05/01 00:21:23;;;;;;;16.20;11.60;;;;;;;6.79;100.00;97359.45;110091;1241;68551;-73
2023/05/01 00:23:53;;;;;;;;;;;;;;;6.74;100.00;97354.75;110170;1241;59764;-73
2023/05/01 00:26:25;;;;;;;14.70;11.40;;;;;;;6.67;100.00;97360.70;110157;1244;59667;-73
2023/05/01 00:28:57;;;;;;;13.60;11.10;;;;;;;6.61;100.00;97361.70;110125;1241;71744;-72
2023/05/01 00:31:28;;;;;;;13.40;11.10;;;;;;;6.57;100.00;97365.95;110118;1241;68572;-73
2023/05/01 00:34:00;;;;;;;12.60;10.70;;;;;;;6.52;100.00;97366.56;110122;1241;67663;-73
2023/05/01 00:36:31;;;;;;;14.40;10.60;;;;;;;6.47;100.00;97369.48;110154;1243;59734;-73
2023/05/01 00:39:03;;;;;;;13.40;11.30;;;;;;;6.41;100.00;97374.45;110138;1242;59686;-73
2023/05/01 00:41:34;;;;;;;13.80;10.40;;;;;;;6.38;100.00;97377.23;110103;1244;71392;-75
2023/05/01 00:44:06;;;;;;;12.20;8.90;;;;;;;6.38;100.00;97376.55;110162;1242;67642;-74
2023/05/01 00:46:38;;;;;;;12.80;10.00;;;;;;;6.35;100.00;97377.39;110120;1244;69328;-73
2023/05/01 00:49:08;;;;;;;12.20;8.70;;;;;;;6.32;100.00;97380.02;110124;1243;59688;-73
2023/05/01 00:51:41;;;;;;;15.10;11.20;;;;;;;6.29;100.00;97376.55;110117;1241;59644;-73
2023/05/01 00:54:11;;;;;;;13.80;11.10;;;;;;;6.28;100.00;97375.55;110199;1243;70693;-73
2023/05/01 00:56:46;;;;;;;11.90;10.60;;;;;;;6.29;100.00;97375.16;110150;1244;68478;-75
2023/05/01 00:59:18;;;;;;;14.10;10.70;;;;;;;6.27;100.00;97377.70;110142;1244;69111;-73
2023/05/01 01:01:51;;;;;;;11.70;9.60;;;;;;;6.22;100.00;97381.92;110122;1244;59730;-73
2023/05/01 01:04:30;;;;;;;13.60;9.50;;;;;;;6.18;100.00;97378.02;110172;1244;59728;-73
2023/05/01 01:07:10;;;;;;;11.70;10.20;;;;;;;6.14;100.00;97381.18;110099;1244;71365;-73
2023/05/01 01:10:03;;;;;;;14.10;10.20;;;;;;;6.10;100.00;97381.94;110143;1241;68531;-73
2023/05/01 01:12:39;;;;;;;12.70;10.40;;;;;;;6.04;100.00;97382.42;110109;1244;68544;-73
2023/05/01 01:15:23;;;;;;;15.40;9.70;;;;;;;5.98;100.00;97385.71;110132;1241;59677;-74
2023/05/01 01:18:24;;;;;;;10.60;9.00;;;;;;;5.94;100.00;97391.96;110132;1242;59707;-73
2023/05/01 01:21:04;;;;;;;13.40;10.30;;;;;;;5.87;100.00;97386.77;110182;1241;71298;-74
2023/05/01 01:24:13;;;;;;;9.80;8.50;;;;;;;5.80;100.00;97390.81;110196;1243;69505;-74
2023/05/01 01:26:57;;;;;;;14.90;10.90;;;;;;;5.72;100.00;97392.63;109949;1241;68459;-74
2023/05/01 01:29:54;;;;;;;11.90;10.10;;;;;;;5.67;100.00;97389.77;110130;1244;59740;-75
2023/05/01 01:33:03;;;;;;;16.00;10.60;;;;;;;5.60;100.00;97391.87;110135;1243;59708;-75
2023/05/01 01:35:36;;;;;;;14.80;12.10;;;;;;;5.52;100.00;97390.55;110196;1241;71888;-75
2023/05/01 01:38:16;;;;;;;15.40;11.20;;;;;;;5.46;100.00;97392.77;110178;1243;69025;-75
2023/05/01 01:41:03;;;;;;;13.20;10.40;;;;;;;5.44;100.00;97391.16;110302;1244;69321;-74
2023/05/01 01:43:40;;;;;;;13.80;10.20;;;;;;;5.42;100.00;97390.03;110141;1244;59683;-74
2023/05/01 01:46:16;;;;;;;12.20;9.10;;;;;;;5.42;100.00;97390.39;110129;1243;59686;-75
2023/05/01 01:48:49;;;;;;;14.40;10.10;;;;;;;5.41;100.00;97388.21;110085;1241;71396;-74
2023/05/01 01:51:21;;;;;;;13.30;10.40;;;;;;;5.40;100.00;97390.52;110144;1245;69119;-75
2023/05/01 01:53:56;;;;;;;13.00;9.70;;;;;;;5.36;100.00;97390.18;110161;1241;69271;-74
2023/05/01 01:56:30;;;;;;;13.20;9.80;;;;;;;5.32;100.00;97388.17;109861;1245;59718;-74
2023/05/01 01:59:02;;;;;;;13.80;9.50;;;;;;;5.25;100.00;97390.06;110177;1244;59691;-74
2023/05/01 02:01:36;;;;;;;13.20;9.90;;;;;;;5.20;100.00;97389.83;110178;1241;71253;-74
2023/05/01 02:04:09;;;;;;;14.50;10.50;;;;;;;5.14;100.00;97394.62;110186;1243;69289;-74
2023/05/01 02:06:42;;;;;;;14.90;10.90;;;;;;;5.08;100.00;97396.80;109543;1245;808528;-74
2023/05/01 02:09:15;;;;;;;12.40;10.10;;;;;;;5.03;100.00;97397.23;110186;1243;59674;-74
2023/05/01 02:11:48;;;;;;;12.10;9.60;;;;;;;4.99;100.00;97397.93;110227;1241;60087;-74
2023/05/01 02:14:26;;;;;;;11.60;8.90;;;;;;;4.94;100.00;97400.98;110176;1241;71368;-74
2023/05/01 02:16:58;;;;;;;13.40;10.40;;;;;;;4.88;100.00;97400.40;110165;1241;69092;-74
2023/05/01 02:19:32;;;;;;;14.60;10.90;;;;;;;4.82;100.00;97397.27;110102;1241;68538;-73
2023/05/01 02:22:05;;;;;;;15.20;11.40;;;;;;;4.77;100.00;97397.31;110160;1241;59742;-74
2023/05/01 02:24:42;;;;;;;15.20;11.40;;;;;;;4.75;100.00;97399.66;110088;1245;59753;-74
2023/05/01 02:27:26;;;;;;;13.70;10.00;;;;;;;4.72;100.00;97399.48;110101;1244;70583;-74
2023/05/01 02:30:00;;;;;;;14.10;10.50;;;;;;;4.71;100.00;97400.40;110141;1244;69266;-74
2023/05/01 02:32:34;;;;;;;14.50;10.70;;;;;;;4.70;100.00;97398.73;110139;1244;69304;-73
2023/05/01 02:35:06;;;;;;;13.80;9.90;;;;;;;4.66;100.00;97400.84;110151;1244;59709;-75
2023/05/01 02:37:38;;;;;;;12.80;10.20;;;;;;;4.60;100.00;97401.08;110121;1241;59760;-73
2023/05/01 02:40:13;;;;;;;10.70;8.60;;;;;;;4.55;100.00;97402.02;110082;1244;71893;-75
2023/05/01 02:42:47;;;;;;;11.40;9.40;;;;;;;4.50;100.00;97405.91;110122;1244;69225;-75
2023/05/01 02:45:20;;;;;;;12.30;10.00;;;;;;;4.44;100.00;97408.60;110159;1243;69126;-75
2023/05/01 02:47:55;;;;;;;12.70;9.60;;;;;;;4.39;100.00;97412.83;110049;1244;59684;-74
2023/05/01 02:50:27;;;;;;;14.60;11.90;;;;;;;4.32;100.00;97411.95;110082;1241;59791;-73
2023/05/01 02:52:58;;;;;;;15.50;10.30;;;;;;;4.23;100.00;97409.30;110150;1244;71371;-74
2023/05/01 02:56:03;;;;;;;11.80;9.40;;;;;;;4.10;100.00;97413.32;109971;1241;69654;-73
2023/05/01 02:58:37;;;;;;;11.90;10.20;;;;;;;4.05;100.00;97417.20;110157;1241;69119;-73
2023/05/01 03:01:11;;;;;;;11.00;9.00;;;;;;;4.00;100.00;97420.69;110089;1241;59692;-73
2023/05/01 03:03:41;;;;;;;11.80;9.30;;;;;;;3.98;100.00;97420.81;110127;1243;59689;-73
2023/05/01 03:06:14;;;;;;;14.80;10.10;;;;;;;3.97;100.00;97418.61;110096;1245;71219;-73
2023/05/01 03:08:46;;;;;;;12.90;9.80;;;;;;;3.95;100.00;97422.28;109846;1241;68465;-73
2023/05/01 03:11:17;;;;;;;13.80;11.30;;;;;;;3.94;100.00;97425.29;110091;1243;69207;-73
2023/05/01 03:13:48;;;;;;;13.80;10.90;;;;;;;3.93;100.00;97426.54;110081;1244;59740;-74
2023/05/01 03:16:18;;;;;;;14.20;10.10;;;;;;;3.91;100.00;97426.27;110121;1245;59681;-73
2023/05/01 03:18:48;;;;;;;15.00;10.90;;;;;;;3.92;100.00;97431.95;110114;1243;71637;-74
2023/05/01 03:21:21;;;;;;;12.20;9.90;;;;;;;3.94;100.00;97431.86;110127;1241;68275;-74
2023/05/01 03:23:52;;;;;;;11.90;9.70;;;;;;;3.96;100.00;97433.98;110079;1241;69245;-74
2023/05/01 03:26:26;;;;;;;16.60;11.70;;;;;;;3.96;100.00;97433.62;110092;1241;59773;-74
2023/05/01 03:28:59;;;;;;;14.70;11.30;;;;;;;3.95;100.00;97436.09;110156;1241;59728;-74
2023/05/01 03:31:32;;;;;;;14.80;11.10;;;;;;;3.95;100.00;97434.02;110076;1245;71422;-73
2023/05/01 03:34:06;;;;;;;14.00;9.70;;;;;;;3.94;100.00;97437.17;110090;1245;68630;-74
2023/05/01 03:36:37;;;;;;;21.50;16.70;;;;;;;3.96;100.00;97437.09;110077;1241;69292;-74
2023/05/01 03:39:07;;;;;;;18.00;13.70;;;;;;;3.98;100.00;97443.40;110079;1244;59738;-73
2023/05/01 03:42:04;;;;;;;16.50;12.40;;;;;;;3.98;100.00;97444.08;109909;1245;59688;-73
2023/05/01 03:44:41;;;;;;;14.80;11.00;;;;;;;4.02;100.00;97445.63;110152;1241;71513;-72
2023/05/01 03:47:11;;;;;;;14.00;11.00;;;;;;;4.04;100.00;97451.19;110198;1241;68553;-73
2023/05/01 03:49:43;;;;;;;16.10;12.10;;;;;;;4.07;100.00;97452.95;110094;1245;69703;-73
2023/05/01 03:52:15;;;;;;;13.80;11.00;;;;;;;4.08;100.00;97450.14;110125;1241;59689;-73
2023/05/01 03:54:46;;;;;;;16.40;11.20;;;;;;;4.10;100.00;97453.70;110159;1244;59689;-72
2023/05/01 03:57:22;;;;;;;13.60;10.60;;;;;;;4.13;100.00;97455.30;110135;1241;71673;-73
2023/05/01 03:59:54;;;;;;;14.20;10.10;;;;;;;4.19;100.00;97458.98;110074;1244;69222;-73
2023/05/01 04:02:24;;;;;;;15.10;10.10;;;;;;;4.27;100.00;97460.13;110099;1242;69275;-73
2023/05/01 04:04:55;;;;;;;16.90;12.70;;;;;;;4.39;100.00;97463.55;110104;1241;59736;-73
2023/05/01 04:07:25;;;;;;;15.30;11.00;;;;;;;4.50;100.00;97458.55;110109;1244;59681;-73
2023/05/01 04:09:55;;;;;;;11.00;9.70;;;;;;;4.63;100.00;97463.45;110083;1244;71550;-73
2023/05/01 04:12:25;;;;;;;14.00;10.80;;;;;;;4.85;100.00;97464.96;110127;1244;68486;-73
2023/05/01 04:14:54;;;;;;;11.20;9.30;;;;;;;5.09;100.00;97465.88;110120;1241;69041;-73
2023/05/01 04:17:24;;;;;;;11.50;8.80;;;;;;;5.32;100.00;97469.39;110118;1244;59754;-73
2023/05/01 04:19:54;;;;;;;10.10;8.90;;;;;;;5.52;100.00;97471.98;110162;1242;59633;-74
2023/05/01 04:22:24;;;;;;;12.40;9.80;;;;;;;5.64;100.00;97478.59;110092;1244;71403;-73
2023/05/01 04:24:54;;;;;;;14.10;10.20;;;;;;;5.68;100.00;97476.38;110102;1244;69244;-73
2023/05/01 04:27:23;;;;;;;;;;;;;;;5.65;100.00;97479.27;110110;1245;69272;-73
2023/05/01 04:29:53;;;;;;;13.30;10.40;;;;;;;5.67;100.00;97486.45;110140;1241;59777;-74
2023/05/01 04:32:23;;;;;;;12.50;10.40;;;;;;;5.72;100.00;97487.55;110195;1244;59690;-74
2023/05/01 04:34:52;;;;;;;11.50;9.50;;;;;;;5.80;100.00;97487.45;110191;1241;72033;-74
2023/05/01 04:37:23;;;;;;;10.50;8.80;;;;;;;5.90;100.00;97489.36;110135;1241;69713;-73
2023/05/01 04:39:52;;;;;;;;;;;;;;;6.14;100.00;97494.85;110147;1244;69857;-74
2023/05/01 04:42:22;;;;;;;;;;;;;;;6.46;100.00;97501.42;110182;1243;59661;-74
2023/05/01 04:44:52;;;;;;;9.90;7.90;;;;;;;6.82;100.00;97502.73;110159;1243;59717;-73
2023/05/01 04:47:22;;;;;;;11.70;8.10;;;;;;;7.25;100.00;97500.64;110172;1243;70492;-74
2023/05/01 04:49:51;;;;;;;9.10;7.70;;;;;;;7.54;98.60;97504.80;110182;1243;68744;-74
2023/05/01 04:52:21;;;;;;;10.80;8.10;;;;;;;7.91;97.34;97508.34;110099;1245;69618;-74
2023/05/01 04:54:57;;;;;;;9.60;8.60;;;;;;;8.28;96.15;97509.91;110108;1245;59661;-74
2023/05/01 04:57:27;;;;;;;9.80;7.80;;;;;;;8.63;99.30;97511.52;110171;1241;59732;-71
2023/05/01 04:59:58;;;;;;;8.00;7.10;;;;;;;8.97;94.56;97513.05;110099;1241;71795;-76
2023/05/01 05:02:27;;;;;;;10.50;8.70;;;;;;;9.40;92.99;97512.63;110143;1243;69809;-76
2023/05/01 05:04:56;;;;;;;9.50;8.20;;;;;;;9.84;95.44;97513.47;110071;1245;68523;-76
2023/05/01 05:07:26;;;;;;;9.40;8.40;;;;;;;10.22;95.21;97520.80;110104;1241;59782;-76
2023/05/01 05:10:14;;;;;;;7.80;7.00;;;;;;;10.69;92.90;97524.11;110150;1241;59693;-76
2023/05/01 05:12:48;;;;;;;8.90;7.50;;;;;;;10.97;85.64;97521.79;110140;1245;70977;-76
2023/05/01 05:15:18;;;;;;;7.80;6.90;;;;;;;11.14;80.31;97523.70;110159;1241;69309;-76
2023/05/01 05:17:47;;;;;;;8.90;7.70;;;;;;;11.25;78.72;97530.55;110033;1243;69119;-76
2023/05/01 05:20:16;;;;;;;8.10;7.30;;;;;;;11.47;81.17;97531.35;110123;1241;59702;-76
2023/05/01 05:22:45;;;;;;;8.50;7.20;;;;;;;11.34;76.70;97534.61;110099;1244;59702;-76
2023/05/01 05:25:25;;;;;;;9.80;8.80;;;;;;;11.58;77.08;97538.25;110282;1244;71452;-76
2023/05/01 05:27:54;;;;;;;9.40;7.90;;;;;;;11.85;80.30;97542.50;110183;1241;70025;-76
2023/05/01 05:30:23;;;;;;;8.60;7.50;;;;;;;11.93;76.26;97544.36;110243;1243;69751;-76
2023/05/01 05:32:53;;;;;;;9.10;6.20;;;;;;;12.17;74.55;97545.84;110221;1245;59690;-75
2023/05/01 05:35:22;;;;;;;8.60;6.70;;;;;;;12.64;75.70;97550.55;110232;1241;59686;-76
2023/05/01 05:37:51;;;;;;;8.80;6.80;;;;;;;12.91;69.00;97550.29;110247;1245;71016;-76
2023/05/01 05:40:20;;;;;;;7.70;6.00;;;;;;;13.10;67.69;97553.85;110242;1241;68802;-76
2023/05/01 05:42:58;;;;;;;6.30;5.70;;;;;;;13.24;67.92;97559.35;110183;1243;69857;-75
2023/05/01 05:45:28;;;;;;;6.30;5.70;;;;;;;13.70;66.23;97557.74;110234;1244;59750;-76
2023/05/01 05:47:56;;;;;;;6.60;5.70;;;;;;;13.82;65.98;97553.73;110200;1245;59785;-74
2023/05/01 05:50:26;;;;;;;7.00;6.10;;;;;;;13.70;65.73;97557.86;110115;1243;71286;-76
2023/05/01 05:52:55;;;;;;;7.00;5.60;;;;;;;14.16;65.46;97563.47;110283;1243;69840;-76
2023/05/01 05:55:24;;;;;;;6.50;5.80;;;;;;;14.03;65.20;97561.15;110139;1241;69544;-76
2023/05/01 05:58:03;;;;;;;6.00;5.40;;;;;;;13.75;65.04;97565.55;110106;1245;59740;-76
2023/05/01 06:00:32;;;;;;;6.10;5.50;;;;;;;13.58;65.12;97567.48;110270;1244;59703;-76
2023/05/01 06:03:04;;;;;;;6.30;5.50;;;;;;;13.78;65.47;97563.36;110253;1242;71220;-76
2023/05/01 06:05:33;;;;;;;8.10;5.30;;;;;;;13.83;64.74;97566.84;110252;1244;69122;-76
2023/05/01 06:08:02;;;;;;;6.30;5.00;;;;;;;13.84;64.74;97569.48;110250;1241;69856;-75
2023/05/01 06:10:31;;;;;;;5.40;4.70;;;;;;;13.63;63.89;97573.75;110233;1241;59695;-75
2023/05/01 06:13:00;;;;;;;5.70;5.10;;;;;;;13.93;63.31;97575.13;110224;1241;59699;-75
2023/05/01 06:15:44;;;;;;;6.30;5.70;;;;;;;14.16;63.32;97576.64;110235;1241;71183;-74
2023/05/01 06:18:13;;;;;;;6.30;5.30;;;;;;;14.34;63.92;97578.91;110039;1245;68418;-74
2023/05/01 06:20:42;;;;;;;5.80;5.10;;;;;;;14.45;63.66;97579.95;110282;1241;68312;-74
2023/05/01 06:23:12;;;;;;;5.80;5.10;;;;;;;14.69;63.36;97579.79;110108;1245;59732;-74
2023/05/01 06:26:04;;;;;;;7.30;5.40;;;;;;;14.55;62.76;97579.42;110286;1245;59672;-74
2023/05/01 06:28:32;;;;;;;5.90;5.20;;;;;;;14.61;63.41;97580.72;110265;1243;72361;-73
2023/05/01 06:31:02;;;;;;;6.00;4.90;;;;;;;14.76;63.61;97578.13;110211;1245;69680;-73
2023/05/01 06:33:33;;;;;;;6.10;5.30;;;;;;;15.18;64.01;97579.55;110200;1241;69461;-74
2023/05/01 06:36:09;;;;;;;6.10;5.30;;;;;;;15.18;62.53;97579.89;110153;1241;59750;-75
2023/05/01 06:38:39;;;;;;;6.80;6.00;;;;;;;15.57;62.42;97574.83;110197;1244;59638;-74
2023/05/01 06:41:08;;;;;;;6.70;5.40;;;;;;;15.63;60.91;97576.77;110267;1244;70468;-73
2023/05/01 06:43:37;;;;;;;6.60;4.90;;;;;;;15.76;59.89;97577.15;110343;1243;69057;-72
2023/05/01 06:46:06;;;;;;;5.80;4.80;;;;;;;15.95;59.32;97577.57;110360;1244;69201;-72
2023/05/01 06:48:35;;;;;;;5.60;5.00;;;;;;;16.36;58.74;97582.52;110319;1244;59709;-72
2023/05/01 06:51:06;;;;;;;7.30;5.30;;;;;;;16.40;56.88;97580.69;110453;1242;59681;-72
2023/05/01 06:53:36;;;;;;;6.20;5.30;;;;;;;16.27;57.14;97583.55;110434;1244;71289;-73
2023/05/01 06:56:05;;;;;;;6.80;5.30;;;;;;;16.50;57.74;97587.93;110318;1243;69831;-73
2023/05/01 06:58:34;;;;;;;5.10;4.10;;;;;;;16.96;56.46;97588.30;110261;1246;69497;-73
2023/05/01 07:01:03;;;;;;;5.10;4.50;;;;;;;17.57;53.36;97589.75;110285;1242;59811;-73
2023/05/01 07:03:32;;;;;;;4.60;4.10;;;;;;;17.85;51.91;97589.60;110113;1245;59753;-74
2023/05/01 07:06:01;;;;;;;5.60;4.70;;;;;;;18.15;51.80;97586.09;110338;1243;71871;-72
2023/05/01 07:08:30;;;;;;;7.20;4.70;;;;;;;18.38;50.40;97591.37;110142;1241;68545;-73
2023/05/01 07:10:59;;;;;;;5.60;5.10;;;;;;;18.49;49.37;97593.30;110144;1244;68320;-73
2023/05/01 07:13:28;;;;;;;5.10;4.20;;;;;;;18.72;48.24;97594.48;110104;1241;59698;-72
2023/05/01 07:15:57;;;;;;;6.60;4.50;;;;;;;18.87;46.89;97591.52;110137;1244;59705;-72
2023/05/01 07:18:26;;;;;;;5.30;4.40;;;;;;;19.18;47.20;97592.44;110136;1241;71703;-72
2023/05/01 07:20:55;;;;;;;4.80;4.30;;;;;;;19.25;46.13;97588.19;110143;1241;69207;-72
2023/05/01 07:23:24;;;;;;;5.40;4.60;;;;;;;19.19;44.99;97585.15;110133;1241;69444;-72
2023/05/01 07:25:54;;;;;;;4.70;4.30;;;;;;;19.39;45.11;97589.34;110152;1244;59751;-72
2023/05/01 07:28:23;;;;;;;5.50;5.00;;;;;;;19.83;45.39;97589.98;110172;1243;59633;-72
2023/05/01 07:30:52;;;;;;;5.30;4.50;;;;;;;19.90;43.91;97588.73;110156;1241;70898;-71
2023/05/01 07:33:23;;;;;;;6.00;4.60;;;;;;;20.00;43.54;97587.93;110144;1243;69198;-72
2023/05/01 07:35:53;;;;;;;5.60;4.60;;;;;;;20.09;43.75;97591.44;110088;1243;69874;-71
2023/05/01 07:38:22;;;;;;;5.20;4.50;;;;;;;20.28;43.24;97588.23;110136;1241;59662;-71
2023/05/01 07:40:55;;;;;;;6.20;4.30;;;;;;;20.63;43.27;97588.09;110125;1244;59659;-71
2023/05/01 07:43:25;;;;;;;5.00;4.50;;;;;;;21.01;41.69;97589.05;110088;1241;71155;-72
2023/05/01 07:45:59;;;;;;;5.10;4.60;;;;;;;21.31;41.05;97590.58;110263;1244;69496;-72
2023/05/01 07:48:28;;;;;;;5.20;4.50;;;;;;;21.54;40.43;97591.73;110260;1244;68411;-73
2023/05/01 07:51:01;;;;;;;4.80;4.40;;;;;;;21.74;41.58;97589.39;110252;1241;59773;-72
2023/05/01 07:53:30;;;;;;;4.60;4.10;;;;;;;21.77;40.80;97590.98;110211;1245;59740;-72
2023/05/01 07:56:07;;;;;;;5.60;4.30;;;;;;;22.02;39.50;97595.36;110228;1245;71519;-72
2023/05/01 07:58:36;;;;;;;6.20;4.60;;;;;;;22.19;39.24;97595.64;110303;1244;70143;-72
2023/05/01 08:01:05;;;;;;;4.40;4.00;;;;;;;22.15;35.59;97593.91;110248;1242;68904;-72
2023/05/01 08:03:35;;;;;;;4.20;3.70;;;;;;;22.46;37.51;97592.96;110216;1242;59686;-72
2023/05/01 08:06:05;;;;;;;5.20;4.60;;;;;;;22.85;35.85;97596.52;110219;1243;59743;-71
2023/05/01 08:08:34;;;;;;;5.30;4.30;;;;;;;22.18;34.39;97590.79;110267;1241;71429;-72
2023/05/01 08:11:03;;;;;;;5.10;4.60;;;;;;;21.75;35.05;97591.08;110300;1241;68481;-72
2023/05/01 08:13:31;;;;;;;6.20;4.90;;;;;;;21.65;35.19;97591.98;110205;1241;69085;-72
2023/05/01 08:16:02;;;;;;;5.20;4.70;;;;;;;21.84;35.07;97589.24;110221;1244;59737;-72
2023/05/01 08:18:30;;;;;;;5.30;4.10;;;;;;;21.89;36.02;97593.09;110260;1244;59686;-72
2023/05/01 08:20:59;;;;;;;5.10;4.50;;;;;;;22.24;35.48;97592.23;110284;1243;71991;-72
2023/05/01 08:23:28;;;;;;;5.70;5.00;;;;;;;22.25;34.66;97589.78;110234;1244;69672;-72
2023/05/01 08:25:57;;;;;;;5.00;4.40;;;;;;;22.19;35.39;97589.98;110289;1241;69261;-72
2023/05/01 08:28:27;;;;;;;5.30;4.80;;;;;;;22.59;35.22;97590.61;110262;1241;59748;-73
2023/05/01 08:30:55;;;;;;;5.00;4.40;;;;;;;22.79;33.22;97597.92;110225;1241;59654;-73
2023/05/01 08:33:24;;;;;;;5.80;4.60;;;;;;;22.89;32.67;97593.20;110291;1241;70619;-73
2023/05/01 08:35:53;;;;;;;4.90;4.30;;;;;;;22.62;34.10;97593.08;110268;1243;68226;-73
2023/05/01 08:38:22;;;;;;;5.60;5.00;;;;;;;23.13;34.10;97593.73;110239;1241;69468;-74
2023/05/01 08:40:53;;;;;;;5.10;4.40;;;;;;;23.57;32.55;97594.22;110246;1244;59697;-74
2023/05/01 08:43:23;;;;;;;5.60;4.40;;;;;;;23.60;32.25;97595.23;110265;1243;59686;-73
2023/05/01 08:45:54;;;;;;;4.40;4.00;;;;;;;23.84;31.02;97593.92;110245;1244;71428;-73
2023/05/01 08:48:24;;;;;;;5.10;3.80;;;;;;;23.87;30.89;97589.95;110239;1245;69838;-73
2023/05/01 08:50:58;;;;;;;4.80;4.00;;;;;;;23.84;30.94;97596.29;110254;1241;69259;-73
2023/05/01 08:53:28;;;;;;;4.00;3.50;;;;;;;23.89;30.61;97595.86;110280;1241;59750;-73
2023/05/01 08:55:59;;;;;;;4.30;3.90;;;;;;;23.78;30.47;97594.25;110207;1241;59802;-73
2023/05/01 08:58:29;;;;;;;4.50;4.00;;;;;;;23.96;30.94;97591.70;110170;1241;70632;-74
2023/05/01 09:01:00;;;;;;;6.20;4.20;;;;;;;24.24;30.52;97588.11;110219;1244;69620;-72
2023/05/01 09:03:32;;;;;;;4.60;4.10;;;;;;;24.19;30.33;97585.73;110238;1241;69086;-72
2023/05/01 09:06:02;;;;;;;5.30;3.60;;;;;;;23.86;30.08;97585.41;110251;1244;59729;-72
2023/05/01 09:08:32;;;;;;;5.70;3.70;;;;;;;24.39;31.60;97583.27;110300;1243;59701;-72
2023/05/01 09:11:02;;;;;;;4.10;3.70;;;;;;;24.68;30.97;97585.77;110246;1241;71201;-73
2023/05/01 09:13:32;;;;;;;4.60;3.70;;;;;;;24.79;29.96;97584.82;110253;1243;69824;-75
2023/05/01 09:16:01;;;;;;;4.40;3.70;;;;;;;24.80;30.13;97591.02;110209;1243;69771;-73
2023/05/01 09:18:30;;;;;;;4.10;3.70;;;;;;;24.55;29.15;97591.27;110257;1244;59710;-73
2023/05/01 09:21:00;;;;;;;4.20;3.60;;;;;;;23.34;29.91;97589.16;110244;1245;59734;-73
2023/05/01 09:23:30;;;;;;;4.40;3.60;;;;;;;23.65;30.51;97588.77;110272;1243;70771;-73
2023/05/01 09:25:59;;;;;;;;;;;;;;;24.48;29.95;97580.96;110265;1244;69131;-73
2023/05/01 09:28:43;;;;;;;;;;;;;;;24.57;29.55;97583.93;110253;1241;69266;-73
2023/05/01 09:31:23;;;;;;;3.80;3.50;;;;;;;24.35;29.57;97585.14;110213;1241;59649;-74
2023/05/01 09:34:00;;;;;;;4.40;3.20;;;;;;;24.49;29.29;97584.45;110299;1243;59700;-75
2023/05/01 09:36:31;;;;;;;4.60;3.40;;;;;;;24.20;29.54;97585.75;110322;1244;71977;-73
2023/05/01 09:39:01;;;;;;;4.70;4.30;;;;;;;25.05;29.08;97585.11;110296;1243;69812;-73
2023/05/01 09:41:33;;;;;;;4.80;3.50;;;;;;;25.04;27.54;97581.95;110319;1246;69287;-73
2023/05/01 09:44:02;;;;;;;4.00;3.10;;;;;;;25.09;27.91;97579.55;110281;1246;59694;-74
2023/05/01 09:46:42;;;;;;;4.30;3.70;;;;;;;25.89;27.35;97580.48;110285;1241;59675;-73
2023/05/01 09:49:11;;;;;;;3.80;3.40;;;;;;;25.86;27.39;97575.48;110268;1241;71382;-73
2023/05/01 09:51:40;;;;;;;;;;;;;;;26.59;27.01;97575.34;110283;1241;69094;-74
2023/05/01 09:54:18;;;;;;;4.30;3.70;;;;;;;25.52;27.02;97576.54;110258;1243;69219;-73
2023/05/01 09:56:48;;;;;;;4.80;4.40;;;;;;;24.80;27.51;97577.94;110264;1244;59988;-72
2023/05/01 09:59:19;;;;;;;4.40;4.00;;;;;;;24.42;28.62;97574.42;110242;1245;59688;-72
2023/05/01 10:01:48;;;;;;;4.60;3.70;;;;;;;23.60;28.91;97575.98;110284;1241;70639;-72
2023/05/01 10:04:32;;;;;;;4.00;3.60;;;;;;;23.31;29.90;97576.57;110224;1243;69077;-72
2023/05/01 10:07:12;;;;;;;4.60;4.10;;;;;;;22.73;30.84;97578.18;110235;1243;69895;-72
2023/05/01 10:09:41;;;;;;;5.10;3.60;;;;;;;22.56;30.22;97575.45;110205;1241;59699;-72
2023/05/01 10:12:23;;;;;;;3.80;3.40;;;;;;;22.61;30.14;97576.63;110235;1243;59740;-72
2023/05/01 10:14:56;;;;;;;4.80;3.70;;;;;;;22.59;29.61;97578.48;110264;1245;71730;-72
2023/05/01 10:17:25;;;;;;;5.20;4.70;;;;;;;23.60;30.90;97579.51;110309;1245;69287;-73
2023/05/01 10:19:54;;;;;;;;;;;;;;;24.62;30.00;97576.21;110269;1244;70432;-73
2023/05/01 10:22:25;;;;;;;4.70;3.60;;;;;;;25.70;28.88;97579.08;110253;1245;59754;-72
2023/05/01 10:24:55;;;;;;;5.00;4.40;;;;;;;26.33;26.56;97575.59;110260;1243;59729;-73
2023/05/01 10:27:25;;;;;;;5.40;3.40;;;;;;;27.10;25.85;97584.04;110237;1241;71957;-73
2023/05/01 10:29:55;;;;;;;4.40;3.60;;;;;;;27.99;24.21;97579.96;110245;1241;68376;-73
2023/05/01 10:32:24;;;;;;;4.10;3.10;;;;;;;28.67;23.37;97575.44;110251;1241;69260;-73
2023/05/01 10:34:59;;;;;;;4.70;3.30;;;;;;;28.23;22.90;97577.46;110225;1244;59764;-73
2023/05/01 10:37:46;;;;;;;3.60;3.00;;;;;;;27.51;22.90;97582.66;110218;1243;59744;-73
2023/05/01 10:40:47;;;;;;;3.00;2.60;;;;;;;26.77;23.09;97579.83;110240;1241;71556;-72
2023/05/01 10:43:31;;;;;;;3.90;3.00;;;;;;;26.07;23.30;97580.20;110299;1241;69241;-72
2023/05/01 10:46:06;;;;;;;3.40;2.60;;;;;;;25.21;24.41;97577.26;110264;1241;68722;-72
2023/05/01 10:48:38;;;;;;;3.30;2.90;;;;;;;24.56;25.41;97578.60;110258;1241;59732;-72
2023/05/01 10:51:08;;;;;;;5.40;3.10;;;;;;;24.03;26.66;97583.34;110258;1243;59671;-72
2023/05/01 10:53:38;;;;;;;5.30;3.80;;;;;;;23.64;27.35;97586.55;110194;1245;70805;-72
2023/05/01 10:56:29;;;;;;;4.70;3.90;;;;;;;23.13;30.37;97587.98;110264;1242;68292;-72
2023/05/01 10:58:59;;;;;;;6.60;4.90;;;;;;;22.73;30.85;97589.93;110249;1245;68735;-72
2023/05/01 11:01:47;;;;;;;6.20;5.30;;;;;;;22.68;30.45;97587.59;110303;1244;59735;-73
2023/05/01 11:04:25;;;;;;;5.60;4.50;;;;;;;22.47;32.19;97585.81;110316;1245;59765;-72
2023/05/01 11:07:00;;;;;;;6.10;5.50;;;;;;;22.30;31.91;97582.31;110150;1244;70665;-72
2023/05/01 11:09:41;;;;;;;7.10;6.20;;;;;;;22.06;31.65;97580.29;110139;1241;68317;-71
2023/05/01 11:12:14;;;;;;;6.40;5.20;;;;;;;22.01;32.00;97581.47;110120;1241;70238;-73
2023/05/01 11:15:01;;;;;;;11.80;9.90;;;;;;;21.84;33.07;97575.77;110214;1243;59704;-72
2023/05/01 11:17:40;;;;;;;9.50;8.40;;;;;;;21.68;32.69;97576.19;110290;1243;59777;-72
2023/05/01 11:20:35;;;;;;;5.50;4.90;;;;;;;21.71;32.68;97576.08;110232;1243;71985;-72
2023/05/01 11:23:04;;;;;;;12.30;10.20;;;;;;;21.84;32.19;97577.16;110297;1241;69836;-72
2023/05/01 11:25:33;;;;;;;5.60;4.60;;;;;;;22.52;30.86;97578.50;110248;1244;69751;-73
2023/05/01 11:28:03;;;;;;;7.40;5.30;;;;;;;23.07;29.88;97576.36;110228;1246;59674;-72
2023/05/01 11:30:50;;;;;;;4.90;4.20;;;;;;;23.58;29.47;97576.26;110245;1245;59681;-73
2023/05/01 11:33:24;;;;;;;5.30;4.80;;;;;;;24.42;28.91;97570.22;110211;1241;71393;-73
2023/05/01 11:35:59;;;;;;;5.00;3.40;;;;;;;24.95;26.54;97568.93;110229;1243;69203;-72
2023/05/01 11:38:28;;;;;;;3.90;2.60;;;;;;;25.70;25.73;97566.80;110258;1245;69244;-72
2023/05/01 11:40:59;;;;;;;4.20;2.80;;;;;;;26.63;25.31;97565.98;110292;1241;59762;-73
2023/05/01 11:43:28;;;;;;;3.70;2.70;;;;;;;26.92;24.45;97561.02;110277;1241;59718;-72
2023/05/01 11:46:01;;;;;;;3.30;2.70;;;;;;;26.84;25.05;97560.80;110221;1241;71269;-72
2023/05/01 11:48:31;;;;;;;4.70;2.70;;;;;;;27.03;23.63;97559.67;110255;1241;69692;-74